首页
METAR-TAF:

METAR-TAF

机场 :

鲍里斯波尔国际机场

鮑里斯皮爾, 乌克兰

纬度: 50-20N, 经度: 030-58E, 海拔: 121米

当前天气观测

该预报发布于17分钟前的20:30 UTC
风速6节,风向西转西北
温度 1°C
湿度 93%
气压 1000 hPa
能见度10公里或以上
散云层高于3000英尺

METAR: UKBB 272030Z 29003MPS 9999 SCT030 01/M00 Q1000 R88/290050 NOSIG

时间: 22:47 (20:47 UTC)

预报

该预报发布于3小时和44分钟前的17:03 UTC
预报有效从27日的 18点(UTC)到 28日的 18点(UTC)
风速6节,风向西转西北
能見度: 6000
多云层高于1200英尺
短暂存在
从 27日的 22点(UTC)到 28日的 05点(UTC)
能見度: 1600
多云层高于300英尺
轻雾
成为
从 28日的 08点(UTC)到 28日的 09点(UTC)
风速8节,风向西北,有时为17节阵风

TAF: UKBB 271703Z 2718/2818 30003MPS 6000 BKN012 TX06/2812Z TNM02/2805Z TEMPO 2722/2805 1600 BR BKN003 BECMG 2808/2809 32004G09MPS

超过4000个机场的气象观测和天气预报(METAR&TAF报告)。

可查询的气象台以黄色和红色小点在地图上表示。

将鼠标移到小点上方,可查看气象台名称。

然后点击查看天气观测和预报。

如需切换地图:点击带黑十字的绿色按钮放大地图;点击带横线的绿色按钮缩小地图;或者点击绿色箭头查看邻近地区的地图。


METAR-TAF: